Time;durP1;ratioP1;P1;durP2;ratioP2;P2;SDS_P1;SDS_P2;PMS_P1;PMS_P2;Temp;Humidity;BMP_temperature;BMP_pressure;BME280_temperature;BME280_humidity;BME280_pressure;Samples;Min_cycle;Max_cycle;Signal;HPM_P1;HPM_P2
2021/12/15 00:01:16;;;;;;;;;45.75;38.50;;;;;-147.17;100.00;50182.59;4962844;28;51172;-57
2021/12/15 00:03:42;;;;;;;;;49.00;41.50;;;;;-147.17;100.00;50166.84;4962531;28;51424;-59
2021/12/15 00:06:17;;;;;;;;;47.25;40.00;;;;;-147.17;100.00;50147.16;4962914;28;51177;-58
2021/12/15 00:08:45;;;;;;;;;54.75;45.25;;;;;-147.17;100.00;50166.84;4963493;28;52005;-58
2021/12/15 00:11:11;;;;;;;;;52.75;43.50;;;;;-147.17;100.00;50162.91;4963387;28;52040;-58
2021/12/15 00:13:38;;;;;;;;;46.75;39.75;;;;;-147.17;100.00;50141.25;4963007;28;51563;-58
2021/12/15 00:16:06;;;;;;;;;51.50;43.00;;;;;-147.17;100.00;50160.94;4963015;28;51038;-58
2021/12/15 00:18:32;;;;;;;;;44.50;40.25;;;;;-147.17;100.00;50135.34;4963826;28;51988;-58
2021/12/15 00:20:57;;;;;;;;;48.50;40.00;;;;;-147.17;100.00;50147.16;4964871;28;51963;-58
2021/12/15 00:23:23;;;;;;;;;53.25;43.75;;;;;-147.17;100.00;50174.72;4962865;28;51411;-58
2021/12/15 00:25:48;;;;;;;;;48.00;40.75;;;;;-147.17;100.00;50166.84;4960060;28;51119;-58
2021/12/15 00:28:14;;;;;;;;;41.25;36.25;;;;;-147.17;100.00;50164.88;4960619;28;51971;-59
2021/12/15 00:30:40;;;;;;;;;43.50;38.00;;;;;-147.17;100.00;50147.16;4961747;28;51150;-59
2021/12/15 00:33:07;;;;;;;;;42.75;38.25;;;;;-147.17;100.00;50160.94;4962334;28;52083;-58
2021/12/15 00:35:33;;;;;;;;;45.50;38.75;;;;;-147.17;100.00;50178.66;4963651;28;51169;-59
2021/12/15 00:37:58;;;;;;;;;48.00;39.75;;;;;-147.17;100.00;50178.66;4962069;28;52138;-58
2021/12/15 00:40:25;;;;;;;;;51.75;43.50;;;;;-147.17;100.00;50170.78;4980967;28;51070;-59
2021/12/15 00:42:51;;;;;;;;;46.00;38.75;;;;;-147.17;100.00;50162.91;4967722;28;51135;-58
2021/12/15 00:45:17;;;;;;;;;52.25;41.00;;;;;-147.17;100.00;50129.44;4956008;28;51083;-59
2021/12/15 00:47:44;;;;;;;;;48.25;40.00;;;;;-147.17;100.00;50153.06;4970664;28;51846;-57
2021/12/15 00:50:11;;;;;;;;;51.25;41.50;;;;;-147.17;100.00;50174.72;4959288;28;51066;-58
2021/12/15 00:52:40;;;;;;;;;44.25;39.25;;;;;-147.17;100.00;50164.88;4966351;28;51064;-58
2021/12/15 00:55:09;;;;;;;;;47.50;38.25;;;;;-147.17;100.00;50186.53;4972403;28;50964;-58
2021/12/15 00:57:35;;;;;;;;;47.75;40.75;;;;;-147.17;100.00;50172.75;4970926;28;51860;-56
2021/12/15 01:00:08;;;;;;;;;47.75;39.75;;;;;-147.17;100.00;50168.81;4971815;28;51161;-57
2021/12/15 01:02:34;;;;;;;;;48.25;40.75;;;;;-147.17;100.00;50221.97;4978361;28;51196;-58
2021/12/15 01:04:59;;;;;;;;;49.00;40.25;;;;;-147.17;100.00;50170.78;4971445;28;51213;-57
2021/12/15 01:07:25;;;;;;;;;47.00;38.50;;;;;-147.17;100.00;50188.50;4973021;28;51685;-57
2021/12/15 01:09:56;;;;;;;;;37.75;34.50;;;;;-147.17;100.00;50158.97;4966831;28;50982;-57
2021/12/15 01:20:32;;;;;;;;;42.25;37.00;;;;;-147.17;100.00;50170.78;4970996;28;51254;-58
2021/12/15 01:23:01;;;;;;;;;44.00;38.00;;;;;-147.17;100.00;50166.84;4968654;28;51226;-58
2021/12/15 01:25:34;;;;;;;;;37.25;35.00;;;;;-147.17;100.00;50188.50;4930165;28;1151859;-59
2021/12/15 01:27:59;;;;;;;;;43.25;37.25;;;;;-147.17;100.00;50186.53;4967885;28;51381;-59
2021/12/15 01:30:28;;;;;;;;;39.75;35.00;;;;;-147.17;100.00;50210.16;4967442;28;51229;-58
2021/12/15 01:32:55;;;;;;;;;38.25;36.25;;;;;-147.17;100.00;50202.28;4969521;28;51198;-59
2021/12/15 01:35:21;;;;;;;;;41.25;35.25;;;;;-147.17;100.00;50225.91;4969161;28;51025;-58
2021/12/15 01:37:47;;;;;;;;;38.25;34.75;;;;;-147.17;100.00;50200.31;4968946;28;51147;-56
2021/12/15 01:40:23;;;;;;;;;39.75;35.25;;;;;-147.17;100.00;50198.34;4971396;28;51211;-57
2021/12/15 01:42:49;;;;;;;;;34.50;32.25;;;;;-147.17;100.00;50221.97;4969781;28;51145;-58
2021/12/15 01:48:04;;;;;;;;;41.75;35.75;;;;;-147.17;100.00;50206.22;4971483;28;51121;-58
2021/12/15 01:50:29;;;;;;;;;37.75;33.00;;;;;-147.17;100.00;50210.16;4966135;28;51130;-58
2021/12/15 01:52:55;;;;;;;;;37.25;33.50;;;;;-147.17;100.00;50218.03;4966242;28;51579;-58
2021/12/15 01:55:21;;;;;;;;;41.25;36.75;;;;;-147.17;100.00;50206.22;4970461;28;51280;-57
2021/12/15 01:57:47;;;;;;;;;39.25;34.50;;;;;-147.17;100.00;50182.59;4968790;28;51981;-57
2021/12/15 02:00:22;;;;;;;;;36.50;31.75;;;;;-147.17;100.00;50194.41;4972460;28;51201;-57
2021/12/15 02:02:49;;;;;;;;;45.00;37.25;;;;;-147.17;100.00;50210.16;4971832;28;51341;-57
2021/12/15 02:05:16;;;;;;;;;36.75;32.75;;;;;-147.17;100.00;50231.81;4970009;28;51281;-57
2021/12/15 02:07:44;;;;;;;;;36.25;33.50;;;;;-147.17;100.00;50206.22;4970152;28;53292;-59
2021/12/15 02:10:10;;;;;;;;;43.75;37.00;;;;;-147.17;100.00;50214.09;4971703;28;51206;-57
2021/12/15 02:12:40;;;;;;;;;42.00;36.75;;;;;-147.17;100.00;50190.47;4967363;28;51227;-58
2021/12/15 02:15:13;;;;;;;;;40.25;36.25;;;;;-147.17;100.00;50198.34;4971630;28;50914;-58
2021/12/15 02:17:40;;;;;;;;;46.50;37.75;;;;;-147.17;100.00;50180.63;4972472;28;51790;-58
2021/12/15 02:20:08;;;;;;;;;39.75;34.25;;;;;-147.17;100.00;50178.66;4965453;28;51102;-58
2021/12/15 02:22:34;;;;;;;;;36.25;34.75;;;;;-147.17;100.00;50178.66;4967931;28;51798;-58
2021/12/15 02:25:00;;;;;;;;;31.75;30.00;;;;;-147.17;100.00;50182.59;4973658;28;51023;-58
2021/12/15 02:27:32;;;;;;;;;42.50;37.25;;;;;-147.17;100.00;50190.47;4969876;28;51865;-57
2021/12/15 02:30:05;;;;;;;;;44.75;37.50;;;;;-147.17;100.00;50198.34;4970579;28;51255;-57
2021/12/15 02:37:45;;;;;;;;;42.25;35.75;;;;;-147.17;100.00;50157.00;4967922;28;51884;-57
2021/12/15 02:40:16;;;;;;;;;44.50;37.75;;;;;-147.17;100.00;50198.34;4969937;28;51181;-57
2021/12/15 02:42:45;;;;;;;;;40.00;33.75;;;;;-147.17;100.00;50192.44;4971816;28;51070;-57
2021/12/15 02:45:13;;;;;;;;;34.00;31.75;;;;;-147.17;100.00;50218.03;4967293;28;51361;-57
2021/12/15 02:47:39;;;;;;;;;39.75;36.00;;;;;-147.17;100.00;50202.28;4970275;28;51212;-57
2021/12/15 02:50:09;;;;;;;;;39.75;36.75;;;;;-147.17;100.00;50253.47;4972122;28;51140;-57
2021/12/15 02:52:35;;;;;;;;;39.00;36.75;;;;;-147.17;100.00;50216.06;4969678;28;51146;-57
2021/12/15 02:55:03;;;;;;;;;44.75;37.50;;;;;-147.17;100.00;50235.75;4969684;28;51131;-57
2021/12/15 02:57:28;;;;;;;;;39.25;36.50;;;;;-147.17;100.00;50180.63;4968758;28;53634;-57
2021/12/15 03:00:01;;;;;;;;;44.25;34.50;;;;;-147.17;100.00;50196.38;4971542;28;51210;-56
2021/12/15 03:05:10;;;;;;;;;37.50;33.50;;;;;-147.17;100.00;50200.31;4965073;28;51015;-59
2021/12/15 03:07:47;;;;;;;;;43.25;36.50;;;;;-147.17;100.00;50206.22;4969579;28;54109;-59
2021/12/15 03:15:46;;;;;;;;;34.25;32.00;;;;;-147.17;100.00;50218.03;4969307;28;51854;-58
2021/12/15 03:18:15;;;;;;;;;37.75;35.00;;;;;-147.17;100.00;50166.84;4968578;28;50994;-58
2021/12/15 03:20:49;;;;;;;;;45.50;38.50;;;;;-147.17;100.00;50182.59;4966986;28;51946;-57
2021/12/15 03:23:23;;;;;;;;;39.50;35.25;;;;;-147.17;100.00;50218.03;4964973;28;51079;-56
2021/12/15 03:25:49;;;;;;;;;40.25;37.00;;;;;-147.17;100.00;50170.78;4968773;28;51097;-57
2021/12/15 03:36:52;;;;;;;;;42.50;37.00;;;;;-147.17;100.00;50202.28;4966230;28;51162;-58
2021/12/15 03:39:18;;;;;;;;;36.00;34.00;;;;;-147.17;100.00;50164.88;4969421;28;52173;-58
2021/12/15 03:41:44;;;;;;;;;41.25;36.75;;;;;-147.17;100.00;50186.53;4968115;28;51285;-58
2021/12/15 03:44:10;;;;;;;;;32.00;31.50;;;;;-147.17;100.00;50204.25;4964568;28;51201;-58
2021/12/15 03:46:35;;;;;;;;;40.75;35.75;;;;;-147.17;100.00;50225.91;4967162;28;51050;-57
2021/12/15 03:49:01;;;;;;;;;40.25;33.00;;;;;-147.17;100.00;50218.03;4966249;28;51883;-57
2021/12/15 03:51:27;;;;;;;;;37.75;34.00;;;;;-147.17;100.00;50194.41;4966122;28;51216;-57
2021/12/15 03:53:53;;;;;;;;;32.25;29.25;;;;;-147.17;100.00;50220.00;4967396;28;51019;-56
2021/12/15 03:56:18;;;;;;;;;29.75;29.25;;;;;-147.17;100.00;50206.22;4967780;28;51337;-57
2021/12/15 03:58:46;;;;;;;;;36.00;30.00;;;;;-147.17;100.00;50188.50;4967145;28;52154;-57
2021/12/15 04:01:16;;;;;;;;;39.75;35.25;;;;;-147.17;100.00;50174.72;4964701;28;52002;-57
2021/12/15 04:03:45;;;;;;;;;31.50;30.00;;;;;-147.17;100.00;50200.31;4963008;28;51234;-56
2021/12/15 04:06:15;;;;;;;;;35.25;32.75;;;;;-147.17;100.00;50225.91;4970873;28;51149;-57
2021/12/15 04:08:41;;;;;;;;;30.00;28.25;;;;;-147.17;100.00;50190.47;4965851;28;52826;-57
2021/12/15 04:11:11;;;;;;;;;29.00;26.00;;;;;-147.17;100.00;50202.28;4963971;28;51112;-57
2021/12/15 04:13:38;;;;;;;;;26.75;23.25;;;;;-147.17;100.00;50229.84;4970883;28;51143;-58
2021/12/15 04:16:07;;;;;;;;;30.25;26.75;;;;;-147.17;100.00;50186.53;4967158;28;51168;-59
2021/12/15 04:18:35;;;;;;;;;30.25;27.00;;;;;-147.17;100.00;50216.06;4973237;28;52824;-59
2021/12/15 04:21:01;;;;;;;;;31.25;31.00;;;;;-147.17;100.00;50198.34;4968908;28;51260;-59
2021/12/15 04:23:27;;;;;;;;;28.25;28.00;;;;;-147.17;100.00;50194.41;4982130;28;51299;-58
2021/12/15 04:25:55;;;;;;;;;18.75;17.00;;;;;-147.17;100.00;50245.59;4968417;28;51356;-60
2021/12/15 04:28:34;;;;;;;;;30.75;28.50;;;;;-147.17;100.00;50212.13;4961098;28;52593;-59
2021/12/15 04:31:05;;;;;;;;;31.50;30.50;;;;;-147.17;100.00;50206.22;4967997;28;50937;-59
2021/12/15 04:33:37;;;;;;;;;35.75;30.25;;;;;-147.17;100.00;50227.88;4972486;28;51031;-59
2021/12/15 04:36:06;;;;;;;;;30.50;28.75;;;;;-147.17;100.00;50208.19;4964804;28;51213;-59
2021/12/15 04:38:34;;;;;;;;;23.50;23.25;;;;;-147.17;100.00;50221.97;4969014;28;50931;-60
2021/12/15 04:41:05;;;;;;;;;26.50;23.25;;;;;-147.17;100.00;50218.03;4968328;28;51164;-59
2021/12/15 04:43:34;;;;;;;;;29.75;27.00;;;;;-147.17;100.00;50223.94;4969901;28;51039;-59
2021/12/15 04:46:01;;;;;;;;;22.75;22.50;;;;;-147.17;100.00;50200.31;4971008;28;51254;-59
2021/12/15 04:48:27;;;;;;;;;27.50;23.25;;;;;-147.17;100.00;50257.41;4970069;28;52267;-59
2021/12/15 04:50:52;;;;;;;;;27.50;26.00;;;;;-147.17;100.00;50229.84;4960873;28;50989;-58
2021/12/15 04:53:18;;;;;;;;;22.00;18.50;;;;;-147.17;100.00;50253.47;4970433;28;51077;-59
2021/12/15 04:55:43;;;;;;;;;21.25;19.75;;;;;-147.17;100.00;50241.66;4972485;28;51110;-60
2021/12/15 04:58:11;;;;;;;;;30.25;27.50;;;;;-147.17;100.00;50243.63;4968261;28;51924;-59
2021/12/15 05:00:42;;;;;;;;;28.00;24.25;;;;;-147.17;100.00;50210.16;4968261;28;51039;-60
2021/12/15 05:03:08;;;;;;;;;28.50;25.50;;;;;-147.17;100.00;50225.91;4971519;28;51122;-59
2021/12/15 05:05:34;;;;;;;;;27.00;26.25;;;;;-147.17;100.00;50251.50;4972469;28;50989;-60
2021/12/15 05:08:00;;;;;;;;;24.75;23.00;;;;;-147.17;100.00;50269.22;4974332;28;51854;-60
2021/12/15 05:10:26;;;;;;;;;24.50;24.00;;;;;-147.17;100.00;50255.44;4974887;28;50976;-60
2021/12/15 05:12:52;;;;;;;;;24.00;22.50;;;;;-147.17;100.00;50269.22;4974893;28;50944;-61
2021/12/15 05:15:18;;;;;;;;;27.75;24.75;;;;;-147.17;100.00;50253.47;4958901;28;51423;-60
2021/12/15 05:17:43;;;;;;;;;23.50;23.00;;;;;-147.17;100.00;50225.91;4974017;28;50946;-60
2021/12/15 05:20:10;;;;;;;;;23.25;20.00;;;;;-147.17;100.00;50220.00;4974718;28;51014;-59
2021/12/15 05:22:37;;;;;;;;;26.75;23.25;;;;;-147.17;100.00;50229.84;4972160;28;51071;-61
2021/12/15 05:25:06;;;;;;;;;25.25;23.75;;;;;-147.17;100.00;50271.19;4975705;28;51251;-59
2021/12/15 05:27:31;;;;;;;;;27.00;24.00;;;;;-147.17;100.00;50259.38;4973792;28;51826;-59
2021/12/15 05:29:57;;;;;;;;;25.25;23.50;;;;;-147.17;100.00;50263.31;4973359;28;51148;-58
2021/12/15 05:32:23;;;;;;;;;22.75;22.25;;;;;-147.17;100.00;50241.66;4974824;28;51050;-58
2021/12/15 05:34:52;;;;;;;;;20.75;18.75;;;;;-147.17;100.00;50239.69;4966722;28;51376;-59
2021/12/15 05:37:21;;;;;;;;;24.75;21.25;;;;;-147.17;100.00;50243.63;4970107;28;52081;-59
2021/12/15 05:39:49;;;;;;;;;25.75;23.75;;;;;-147.17;100.00;50269.22;4973400;28;51003;-60
2021/12/15 05:42:15;;;;;;;;;25.25;23.50;;;;;-147.17;100.00;50245.59;4974089;28;51165;-63
2021/12/15 05:44:40;;;;;;;;;27.75;25.00;;;;;-147.17;100.00;50249.53;4984234;28;51058;-60
2021/12/15 05:47:06;;;;;;;;;23.25;22.00;;;;;-147.17;100.00;50241.66;4970107;28;51900;-63
2021/12/15 05:49:32;;;;;;;;;24.00;23.00;;;;;-147.17;100.00;50253.47;4972166;28;51257;-58
2021/12/15 05:51:58;;;;;;;;;24.50;22.75;;;;;-147.17;100.00;50229.84;4971525;28;51002;-62
2021/12/15 05:54:24;;;;;;;;;22.50;20.75;;;;;-147.17;100.00;50249.53;4973671;28;50967;-59
2021/12/15 05:56:51;;;;;;;;;23.50;23.00;;;;;-147.17;100.00;50241.66;4969680;28;52010;-59
2021/12/15 05:59:17;;;;;;;;;19.75;19.25;;;;;-147.17;100.00;50253.47;4973537;28;51114;-60
2021/12/15 06:01:43;;;;;;;;;26.50;22.25;;;;;-147.17;100.00;50263.31;4970676;28;51237;-60
2021/12/15 06:04:09;;;;;;;;;30.75;29.75;;;;;-147.17;100.00;50249.53;4980383;28;51293;-59
2021/12/15 06:06:35;;;;;;;;;26.00;24.00;;;;;-147.17;100.00;50249.53;4973039;28;52745;-59
2021/12/15 06:09:04;;;;;;;;;23.50;21.00;;;;;-147.17;100.00;50267.25;4975442;28;51173;-59
2021/12/15 06:11:30;;;;;;;;;27.50;22.25;;;;;-147.17;100.00;50267.25;4970023;28;51087;-59
2021/12/15 06:13:56;;;;;;;;;25.25;23.25;;;;;-147.17;100.00;50277.09;4975512;28;51486;-59
2021/12/15 06:16:22;;;;;;;;;11.25;11.25;;;;;-147.17;100.00;50275.13;4968113;28;53958;-59
2021/12/15 06:18:50;;;;;;;;;25.25;23.25;;;;;-147.17;100.00;50249.53;4973375;28;51078;-59
2021/12/15 06:21:18;;;;;;;;;29.25;22.75;;;;;-147.17;100.00;50261.34;4974086;28;52355;-59
2021/12/15 06:23:44;;;;;;;;;22.25;22.00;;;;;-147.17;100.00;50273.16;4970786;28;51354;-59
2021/12/15 06:26:10;;;;;;;;;20.50;18.75;;;;;-147.17;100.00;50253.47;4967264;28;51280;-59
2021/12/15 06:28:37;;;;;;;;;22.25;20.00;;;;;-147.17;100.00;50214.09;4969935;28;51200;-59
2021/12/15 06:31:07;;;;;;;;;21.50;19.25;;;;;-147.17;100.00;50241.66;4962559;28;51008;-59
2021/12/15 06:33:34;;;;;;;;;23.50;21.00;;;;;-147.17;100.00;50271.19;4977268;28;51290;-60
2021/12/15 06:36:01;;;;;;;;;23.00;20.25;;;;;-147.17;100.00;50257.41;4966240;28;51681;-60
2021/12/15 06:38:40;;;;;;;;;23.50;23.25;;;;;-147.17;100.00;50261.34;4979106;28;51187;-59
2021/12/15 06:41:08;;;;;;;;;21.50;20.00;;;;;-147.17;100.00;50257.41;5002046;28;51194;-60
2021/12/15 06:43:35;;;;;;;;;21.25;21.00;;;;;-147.17;100.00;50247.56;4977072;28;51275;-60
2021/12/15 06:59:31;;;;;;;;;22.75;20.75;;;;;-147.17;100.00;50267.25;4977088;28;51198;-59
2021/12/15 07:01:56;;;;;;;;;22.50;20.00;;;;;-147.17;100.00;50284.97;4965032;28;51851;-60
2021/12/15 07:04:23;;;;;;;;;22.00;19.25;;;;;-147.17;100.00;50269.22;4984286;28;51090;-59
2021/12/15 07:06:50;;;;;;;;;20.00;20.00;;;;;-147.17;100.00;50265.28;4975108;28;51098;-60
2021/12/15 07:09:16;;;;;;;;;22.25;21.00;;;;;-147.17;100.00;50267.25;4979510;28;51067;-60
2021/12/15 07:11:42;;;;;;;;;21.50;20.75;;;;;-147.17;100.00;50249.53;4976659;28;51117;-60
2021/12/15 07:14:08;;;;;;;;;25.00;24.00;;;;;-147.17;100.00;50249.53;4983044;28;51523;-59
2021/12/15 07:16:39;;;;;;;;;25.50;23.50;;;;;-147.17;100.00;50249.53;4976645;28;51692;-59
2021/12/15 07:19:16;;;;;;;;;19.25;18.50;;;;;-147.17;100.00;50233.78;4979298;28;51008;-59
2021/12/15 07:21:51;;;;;;;;;21.50;17.75;;;;;-147.17;100.00;50261.34;4975227;28;51132;-61
2021/12/15 07:24:17;;;;;;;;;23.00;21.50;;;;;-147.17;100.00;50269.22;4980554;28;51263;-60
2021/12/15 07:26:42;;;;;;;;;22.00;20.50;;;;;-147.17;100.00;50284.97;4968027;28;52074;-59
2021/12/15 07:29:08;;;;;;;;;18.25;16.00;;;;;-147.17;100.00;50273.16;4966899;28;51128;-59
2021/12/15 07:31:33;;;;;;;;;22.00;21.00;;;;;-147.17;100.00;50296.78;4963177;28;51029;-60
2021/12/15 07:33:58;;;;;;;;;28.75;24.00;;;;;-147.17;100.00;50275.13;4968467;28;51242;-60
2021/12/15 07:36:24;;;;;;;;;23.00;22.00;;;;;-147.17;100.00;50273.16;4970391;28;51911;-60
2021/12/15 07:38:49;;;;;;;;;19.25;19.25;;;;;-147.17;100.00;50255.44;4964620;28;50919;-61
2021/12/15 07:41:25;;;;;;;;;21.00;20.50;;;;;-147.17;100.00;50273.16;4966299;28;51120;-59
2021/12/15 07:43:52;;;;;;;;;17.50;17.00;;;;;-147.17;100.00;50298.75;4965881;28;51140;-60
2021/12/15 07:46:18;;;;;;;;;18.75;17.00;;;;;-147.17;100.00;50281.03;4969154;28;51541;-59
2021/12/15 07:48:43;;;;;;;;;22.25;21.25;;;;;-147.17;100.00;50281.03;4971334;28;51096;-58
2021/12/15 07:51:10;;;;;;;;;20.25;17.25;;;;;-147.17;100.00;50271.19;4963344;28;51109;-59
2021/12/15 07:53:38;;;;;;;;;19.50;18.25;;;;;-147.17;100.00;50277.09;4969614;28;50959;-60
2021/12/15 07:56:03;;;;;;;;;20.50;18.50;;;;;-147.17;100.00;50257.41;4971201;28;51576;-60
2021/12/15 07:58:29;;;;;;;;;20.75;20.00;;;;;-147.17;100.00;50265.28;4963983;28;51039;-59
2021/12/15 08:00:58;;;;;;;;;17.50;17.00;;;;;-147.17;100.00;50237.72;4965732;28;51182;-59
2021/12/15 08:03:24;;;;;;;;;18.25;18.25;;;;;-147.17;100.00;50253.47;4968595;28;51300;-60
2021/12/15 08:05:51;;;;;;;;;20.75;20.25;;;;;-147.17;100.00;50241.66;4963141;28;51281;-60
2021/12/15 08:08:17;;;;;;;;;22.25;21.50;;;;;-147.17;100.00;50241.66;4957203;28;51149;-59
2021/12/15 08:10:44;;;;;;;;;22.75;20.50;;;;;-147.17;100.00;50269.22;4970842;28;51013;-61
2021/12/15 08:13:11;;;;;;;;;25.75;23.75;;;;;-147.17;100.00;50223.94;4965498;28;51131;-60
2021/12/15 08:15:38;;;;;;;;;25.50;25.50;;;;;-147.17;100.00;50229.84;4972928;28;51649;-60
2021/12/15 08:18:04;;;;;;;;;28.25;25.75;;;;;-147.17;100.00;50210.16;4972824;28;51081;-60
2021/12/15 08:20:31;;;;;;;;;23.75;22.50;;;;;-147.17;100.00;50269.22;4964286;28;51119;-61
2021/12/15 08:22:57;;;;;;;;;22.75;20.00;;;;;-147.17;100.00;50245.59;4968615;28;51601;-60
2021/12/15 08:25:22;;;;;;;;;23.50;23.00;;;;;-147.17;100.00;50247.56;4986882;28;52847;-61
2021/12/15 08:27:49;;;;;;;;;23.50;21.75;;;;;-147.17;100.00;50220.00;4972031;28;51198;-61
2021/12/15 08:30:20;;;;;;;;;23.00;23.00;;;;;-147.17;100.00;50233.78;4972532;28;50886;-61
2021/12/15 08:32:49;;;;;;;;;22.50;22.50;;;;;-147.17;100.00;50233.78;4972225;28;51002;-59
2021/12/15 08:35:17;;;;;;;;;22.00;19.00;;;;;-147.17;100.00;50233.78;4961479;28;51900;-61
2021/12/15 08:37:42;;;;;;;;;20.00;19.00;;;;;-147.17;100.00;50221.97;4965876;28;51293;-62
2021/12/15 08:40:08;;;;;;;;;24.00;24.00;;;;;-147.17;100.00;50253.47;4967455;28;51186;-61
2021/12/15 08:42:34;;;;;;;;;21.50;19.25;;;;;-147.17;100.00;50214.09;4957870;28;50908;-60
2021/12/15 08:44:59;;;;;;;;;16.75;16.00;;;;;-147.17;100.00;50283.00;4978371;28;52490;-63
2021/12/15 08:47:25;;;;;;;;;21.75;19.50;;;;;-147.17;100.00;50249.53;4962577;28;51173;-61
2021/12/15 08:49:50;;;;;;;;;22.00;19.50;;;;;-147.17;100.00;50241.66;4958796;28;51017;-59
2021/12/15 08:52:17;;;;;;;;;20.25;17.75;;;;;-147.17;100.00;50233.78;4955566;28;51320;-60
2021/12/15 08:54:42;;;;;;;;;14.50;13.50;;;;;-147.17;100.00;50214.09;4963676;28;51983;-59
2021/12/15 08:57:09;;;;;;;;;15.50;15.50;;;;;-147.17;100.00;50249.53;4967602;28;50865;-60
2021/12/15 08:59:35;;;;;;;;;23.50;18.25;;;;;-147.17;100.00;50186.53;4962870;28;51162;-60
2021/12/15 09:02:00;;;;;;;;;20.00;18.00;;;;;-147.17;100.00;50214.09;4971195;28;51242;-59
2021/12/15 09:04:26;;;;;;;;;19.75;19.00;;;;;-147.17;100.00;50186.53;4972503;28;51912;-59
2021/12/15 09:06:52;;;;;;;;;23.25;22.25;;;;;-147.17;100.00;50214.09;4974132;28;51214;-60
2021/12/15 09:09:20;;;;;;;;;17.25;17.00;;;;;-147.17;100.00;50221.97;4970962;28;51180;-60
2021/12/15 09:11:48;;;;;;;;;24.50;23.50;;;;;-147.17;100.00;50202.28;4970197;28;51567;-60
2021/12/15 09:14:13;;;;;;;;;23.50;19.25;;;;;-147.17;100.00;50253.47;4974695;28;53165;-60
2021/12/15 09:16:42;;;;;;;;;19.00;19.00;;;;;-147.17;100.00;50245.59;4967198;28;51428;-60
2021/12/15 09:19:07;;;;;;;;;18.75;17.00;;;;;-147.17;100.00;50249.53;4955131;28;50970;-59
2021/12/15 09:21:35;;;;;;;;;12.25;12.25;;;;;-147.17;100.00;50241.66;4958005;28;51136;-60
2021/12/15 09:24:03;;;;;;;;;19.50;18.75;;;;;-147.17;100.00;50221.97;4964269;28;51281;-61
2021/12/15 09:26:29;;;;;;;;;18.50;18.25;;;;;-147.17;100.00;50231.81;4958553;28;50902;-61
2021/12/15 09:28:54;;;;;;;;;16.75;12.25;;;;;-147.17;100.00;50223.94;4974206;28;51260;-60
2021/12/15 09:31:20;;;;;;;;;13.75;12.25;;;;;-147.17;100.00;50216.06;4957698;28;51282;-61
2021/12/15 09:33:50;;;;;;;;;10.75;10.00;;;;;-147.17;100.00;50261.34;4954942;28;52151;-60
2021/12/15 09:36:17;;;;;;;;;16.75;16.75;;;;;-147.17;100.00;50218.03;4954928;28;51073;-60
2021/12/15 09:38:47;;;;;;;;;14.50;11.50;;;;;-147.17;100.00;50257.41;4954956;28;51180;-60
2021/12/15 09:41:16;;;;;;;;;17.50;15.50;;;;;-147.17;100.00;50233.78;4954868;28;51224;-60
2021/12/15 09:43:43;;;;;;;;;16.75;14.75;;;;;-147.17;100.00;50225.91;4954588;28;51978;-60
2021/12/15 09:46:42;;;;;;;;;17.75;17.75;;;;;-147.17;100.00;50267.25;4954651;28;50946;-60
2021/12/15 09:57:47;;;;;;;;;14.25;14.00;;;;;-147.17;100.00;50216.06;4968730;28;51127;-61
2021/12/15 10:03:03;;;;;;;;;23.00;19.00;;;;;-147.17;100.00;50233.78;4973193;28;51171;-61
2021/12/15 10:05:43;;;;;;;;;18.00;16.75;;;;;-147.17;100.00;50249.53;4965046;28;51234;-61
2021/12/15 10:11:47;;;;;;;;;18.00;18.00;;;;;-147.17;100.00;50216.06;4963305;28;51020;-59
2021/12/15 10:19:32;;;;;;;;;18.75;18.25;;;;;-147.17;100.00;50220.00;4970651;28;51275;-58
2021/12/15 10:22:29;;;;;;;;;16.50;15.25;;;;;-147.17;100.00;50239.69;4971298;28;51094;-59
2021/12/15 10:24:56;;;;;;;;;18.00;16.00;;;;;-147.17;100.00;50237.72;4969977;28;51259;-60
2021/12/15 10:27:36;;;;;;;;;17.50;15.75;;;;;-147.17;100.00;50233.78;4963376;28;51998;-59
2021/12/15 10:30:10;;;;;;;;;20.00;18.50;;;;;-147.17;100.00;50237.72;4971985;28;51150;-60
2021/12/15 10:32:38;;;;;;;;;16.75;15.75;;;;;-147.17;100.00;50225.91;4955323;28;51137;-60
2021/12/15 10:35:05;;;;;;;;;16.25;14.50;;;;;-147.17;100.00;50235.75;4964579;28;51180;-60
2021/12/15 10:37:31;;;;;;;;;20.00;17.00;;;;;-147.17;100.00;50257.41;4972285;28;52399;-59
2021/12/15 10:40:18;;;;;;;;;16.25;16.00;;;;;-147.17;100.00;50221.97;4973441;28;51430;-59
2021/12/15 10:42:45;;;;;;;;;16.50;14.00;;;;;-147.17;100.00;50237.72;4973627;28;51181;-59
2021/12/15 10:45:13;;;;;;;;;16.25;14.75;;;;;-147.17;100.00;50239.69;4968993;28;50978;-59
2021/12/15 10:47:49;;;;;;;;;17.25;16.00;;;;;-147.17;100.00;50249.53;4964678;28;51042;-59
2021/12/15 10:50:21;;;;;;;;;17.00;15.00;;;;;-147.17;100.00;50233.78;4972509;28;51163;-59
2021/12/15 10:52:57;;;;;;;;;15.75;13.00;;;;;-147.17;100.00;50257.41;4973093;28;51180;-59
2021/12/15 10:55:32;;;;;;;;;17.50;15.25;;;;;-147.17;100.00;50229.84;4969580;28;51168;-59
2021/12/15 10:58:00;;;;;;;;;17.00;17.00;;;;;-147.17;100.00;50239.69;4953364;28;51065;-60
2021/12/15 11:00:25;;;;;;;;;18.00;18.00;;;;;-147.17;100.00;50231.81;4955362;28;51191;-61
2021/12/15 11:03:00;;;;;;;;;18.50;16.75;;;;;-147.17;100.00;50245.59;4962218;28;51349;-60
2021/12/15 11:05:25;;;;;;;;;19.00;19.00;;;;;-147.17;100.00;50220.00;4953725;28;51060;-60
2021/12/15 11:07:52;;;;;;;;;15.25;15.25;;;;;-147.17;100.00;50249.53;4952988;28;51048;-60
2021/12/15 11:10:27;;;;;;;;;17.00;15.25;;;;;-147.17;100.00;50235.75;4953762;28;51000;-59
2021/12/15 11:12:53;;;;;;;;;13.00;12.25;;;;;-147.17;100.00;50200.31;4953331;28;51206;-61
2021/12/15 11:15:22;;;;;;;;;10.50;9.75;;;;;-147.17;100.00;50257.41;4953484;28;50970;-60
2021/12/15 11:17:59;;;;;;;;;11.50;11.00;;;;;-147.17;100.00;50245.59;4956254;28;51945;-59
2021/12/15 11:20:28;;;;;;;;;10.25;8.25;;;;;-147.17;100.00;50286.94;4958554;28;51077;-59
2021/12/15 11:23:00;;;;;;;;;13.25;12.75;;;;;-147.17;100.00;50218.03;4952803;28;51071;-60
2021/12/15 11:25:39;;;;;;;;;15.00;12.50;;;;;-147.17;100.00;50241.66;4953116;28;51250;-60
2021/12/15 11:28:16;;;;;;;;;14.00;13.00;;;;;-147.17;100.00;50233.78;4962616;28;51401;-59
2021/12/15 11:30:41;;;;;;;;;16.00;13.00;;;;;-147.17;100.00;50249.53;4966725;28;50936;-59
2021/12/15 11:33:11;;;;;;;;;12.25;12.00;;;;;-147.17;100.00;50265.28;4952691;28;50996;-59
2021/12/15 11:36:02;;;;;;;;;11.25;10.00;;;;;-147.17;100.00;50245.59;4953305;28;51261;-61
2021/12/15 11:38:47;;;;;;;;;11.75;11.25;;;;;-147.17;100.00;50304.66;4952014;28;51918;-61
2021/12/15 11:41:22;;;;;;;;;17.00;15.00;;;;;-147.17;100.00;50249.53;4952831;28;51066;-60
2021/12/15 11:43:54;;;;;;;;;15.25;13.00;;;;;-147.17;100.00;50259.38;4965966;28;51033;-60
2021/12/15 11:46:33;;;;;;;;;12.75;12.75;;;;;-147.17;100.00;50227.88;4952465;28;51022;-61
2021/12/15 11:49:13;;;;;;;;;12.25;9.75;;;;;-147.17;100.00;50269.22;4952026;28;51323;-60
2021/12/15 11:51:45;;;;;;;;;16.50;13.50;;;;;-147.17;100.00;50233.78;4951348;28;51131;-60
2021/12/15 11:54:24;;;;;;;;;18.50;15.25;;;;;-147.17;100.00;50235.75;4952891;28;51147;-59
2021/12/15 11:56:49;;;;;;;;;15.75;13.75;;;;;-147.17;100.00;50233.78;4967620;28;50995;-60
2021/12/15 11:59:35;;;;;;;;;11.00;9.50;;;;;-147.17;100.00;50265.28;4960847;28;51868;-61
2021/12/15 12:02:09;;;;;;;;;12.00;12.00;;;;;-147.17;100.00;50257.41;4954123;28;51009;-59
2021/12/15 12:04:44;;;;;;;;;12.25;10.50;;;;;-147.17;100.00;50255.44;4953145;28;51113;-61
2021/12/15 12:07:14;;;;;;;;;14.00;13.50;;;;;-147.17;100.00;50265.28;4952652;28;50969;-60